sensor_id;sensor_type;location;lat;lon;timestamp;P1;durP1;ratioP1;P2;durP2;ratioP2
57467;SDS011;43311;51.196;7.518;2023-07-31T00:02:12;11.77;;;5.40;;
57467;SDS011;43311;51.196;7.518;2023-07-31T00:04:37;16.70;;;6.35;;
57467;SDS011;43311;51.196;7.518;2023-07-31T00:07:06;9.70;;;5.82;;
57467;SDS011;43311;51.196;7.518;2023-07-31T00:09:32;13.20;;;6.05;;
57467;SDS011;43311;51.196;7.518;2023-07-31T00:11:57;11.02;;;5.45;;
57467;SDS011;43311;51.196;7.518;2023-07-31T00:14:23;8.20;;;4.95;;
57467;SDS011;43311;51.196;7.518;2023-07-31T00:16:48;7.70;;;5.22;;
57467;SDS011;43311;51.196;7.518;2023-07-31T00:19:14;11.02;;;4.20;;
57467;SDS011;43311;51.196;7.518;2023-07-31T00:21:39;10.45;;;4.68;;
57467;SDS011;43311;51.196;7.518;2023-07-31T00:24:05;9.15;;;4.82;;
57467;SDS011;43311;51.196;7.518;2023-07-31T00:26:30;12.00;;;4.85;;
57467;SDS011;43311;51.196;7.518;2023-07-31T00:28:57;10.98;;;5.65;;
57467;SDS011;43311;51.196;7.518;2023-07-31T00:31:22;9.70;;;5.13;;
57467;SDS011;43311;51.196;7.518;2023-07-31T00:33:48;13.15;;;6.55;;
57467;SDS011;43311;51.196;7.518;2023-07-31T00:36:13;14.55;;;6.25;;
57467;SDS011;43311;51.196;7.518;2023-07-31T00:38:39;14.57;;;6.80;;
57467;SDS011;43311;51.196;7.518;2023-07-31T00:41:05;11.15;;;5.80;;
57467;SDS011;43311;51.196;7.518;2023-07-31T00:43:30;10.23;;;5.45;;
57467;SDS011;43311;51.196;7.518;2023-07-31T00:45:56;12.00;;;5.97;;
57467;SDS011;43311;51.196;7.518;2023-07-31T00:48:21;12.43;;;5.60;;
57467;SDS011;43311;51.196;7.518;2023-07-31T00:50:47;11.00;;;5.95;;
57467;SDS011;43311;51.196;7.518;2023-07-31T00:53:14;12.15;;;5.50;;
57467;SDS011;43311;51.196;7.518;2023-07-31T00:55:39;13.35;;;5.93;;
57467;SDS011;43311;51.196;7.518;2023-07-31T00:58:05;11.90;;;5.93;;
57467;SDS011;43311;51.196;7.518;2023-07-31T01:00:30;12.50;;;5.60;;
57467;SDS011;43311;51.196;7.518;2023-07-31T01:02:56;13.88;;;6.97;;
57467;SDS011;43311;51.196;7.518;2023-07-31T01:05:25;14.88;;;7.38;;
57467;SDS011;43311;51.196;7.518;2023-07-31T01:10:56;11.80;;;5.57;;
57467;SDS011;43311;51.196;7.518;2023-07-31T01:13:57;16.65;;;5.20;;
57467;SDS011;43311;51.196;7.518;2023-07-31T01:16:24;14.93;;;6.05;;
57467;SDS011;43311;51.196;7.518;2023-07-31T01:18:51;13.07;;;5.70;;
57467;SDS011;43311;51.196;7.518;2023-07-31T01:24:20;14.10;;;5.80;;
57467;SDS011;43311;51.196;7.518;2023-07-31T01:26:56;15.30;;;6.47;;
57467;SDS011;43311;51.196;7.518;2023-07-31T01:29:38;9.90;;;5.30;;
57467;SDS011;43311;51.196;7.518;2023-07-31T01:32:14;9.88;;;4.72;;
57467;SDS011;43311;51.196;7.518;2023-07-31T01:34:42;10.73;;;4.63;;
57467;SDS011;43311;51.196;7.518;2023-07-31T01:37:09;13.82;;;4.72;;
57467;SDS011;43311;51.196;7.518;2023-07-31T01:39:34;9.35;;;4.78;;
57467;SDS011;43311;51.196;7.518;2023-07-31T01:42:00;8.82;;;4.45;;
57467;SDS011;43311;51.196;7.518;2023-07-31T01:44:25;10.82;;;3.83;;
57467;SDS011;43311;51.196;7.518;2023-07-31T01:46:51;9.13;;;4.65;;
57467;SDS011;43311;51.196;7.518;2023-07-31T01:49:16;12.95;;;4.53;;
57467;SDS011;43311;51.196;7.518;2023-07-31T01:51:42;12.05;;;5.70;;
57467;SDS011;43311;51.196;7.518;2023-07-31T01:54:07;11.25;;;4.63;;
57467;SDS011;43311;51.196;7.518;2023-07-31T01:56:32;14.90;;;4.82;;
57467;SDS011;43311;51.196;7.518;2023-07-31T01:58:58;12.85;;;4.47;;
57467;SDS011;43311;51.196;7.518;2023-07-31T02:01:23;8.65;;;3.92;;
57467;SDS011;43311;51.196;7.518;2023-07-31T02:03:49;12.23;;;4.78;;
57467;SDS011;43311;51.196;7.518;2023-07-31T02:06:15;13.50;;;3.95;;
57467;SDS011;43311;51.196;7.518;2023-07-31T02:08:40;15.55;;;5.32;;
57467;SDS011;43311;51.196;7.518;2023-07-31T02:11:06;6.88;;;3.75;;
57467;SDS011;43311;51.196;7.518;2023-07-31T02:13:31;12.82;;;4.32;;
57467;SDS011;43311;51.196;7.518;2023-07-31T02:15:56;11.90;;;4.32;;
57467;SDS011;43311;51.196;7.518;2023-07-31T02:18:22;10.50;;;4.80;;
57467;SDS011;43311;51.196;7.518;2023-07-31T02:20:51;11.00;;;3.90;;
57467;SDS011;43311;51.196;7.518;2023-07-31T02:23:18;9.70;;;4.30;;
57467;SDS011;43311;51.196;7.518;2023-07-31T02:25:44;12.23;;;4.80;;
57467;SDS011;43311;51.196;7.518;2023-07-31T02:28:09;15.73;;;4.07;;
57467;SDS011;43311;51.196;7.518;2023-07-31T02:30:35;10.57;;;3.78;;
57467;SDS011;43311;51.196;7.518;2023-07-31T02:33:00;13.10;;;4.65;;
57467;SDS011;43311;51.196;7.518;2023-07-31T02:35:25;14.85;;;4.63;;
57467;SDS011;43311;51.196;7.518;2023-07-31T02:37:51;13.07;;;3.80;;
57467;SDS011;43311;51.196;7.518;2023-07-31T02:40:18;13.85;;;4.55;;
57467;SDS011;43311;51.196;7.518;2023-07-31T02:42:43;10.15;;;4.38;;
57467;SDS011;43311;51.196;7.518;2023-07-31T02:45:10;12.73;;;4.05;;
57467;SDS011;43311;51.196;7.518;2023-07-31T02:47:36;16.98;;;3.97;;
57467;SDS011;43311;51.196;7.518;2023-07-31T02:50:02;17.58;;;4.35;;
57467;SDS011;43311;51.196;7.518;2023-07-31T02:52:28;14.13;;;4.20;;
57467;SDS011;43311;51.196;7.518;2023-07-31T02:54:53;12.07;;;4.25;;
57467;SDS011;43311;51.196;7.518;2023-07-31T02:57:19;16.10;;;5.07;;
57467;SDS011;43311;51.196;7.518;2023-07-31T02:59:44;13.23;;;3.92;;
57467;SDS011;43311;51.196;7.518;2023-07-31T03:02:09;16.23;;;4.55;;
57467;SDS011;43311;51.196;7.518;2023-07-31T03:04:35;10.10;;;4.30;;
57467;SDS011;43311;51.196;7.518;2023-07-31T03:07:01;13.15;;;4.10;;
57467;SDS011;43311;51.196;7.518;2023-07-31T03:09:26;15.23;;;5.35;;
57467;SDS011;43311;51.196;7.518;2023-07-31T03:11:51;10.70;;;4.13;;
57467;SDS011;43311;51.196;7.518;2023-07-31T03:14:17;11.98;;;4.18;;
57467;SDS011;43311;51.196;7.518;2023-07-31T03:16:42;10.45;;;3.42;;
57467;SDS011;43311;51.196;7.518;2023-07-31T03:19:07;14.27;;;4.32;;
57467;SDS011;43311;51.196;7.518;2023-07-31T03:21:33;9.70;;;3.92;;
57467;SDS011;43311;51.196;7.518;2023-07-31T03:23:58;12.80;;;4.15;;
57467;SDS011;43311;51.196;7.518;2023-07-31T03:26:23;10.88;;;3.78;;
57467;SDS011;43311;51.196;7.518;2023-07-31T03:28:49;10.38;;;4.07;;
57467;SDS011;43311;51.196;7.518;2023-07-31T03:31:14;10.02;;;4.20;;
57467;SDS011;43311;51.196;7.518;2023-07-31T03:33:40;19.77;;;4.40;;
57467;SDS011;43311;51.196;7.518;2023-07-31T03:36:05;12.85;;;4.88;;
57467;SDS011;43311;51.196;7.518;2023-07-31T03:38:31;12.77;;;4.47;;
57467;SDS011;43311;51.196;7.518;2023-07-31T03:40:56;11.70;;;4.82;;
57467;SDS011;43311;51.196;7.518;2023-07-31T03:43:23;10.43;;;4.18;;
57467;SDS011;43311;51.196;7.518;2023-07-31T03:45:50;14.57;;;4.80;;
57467;SDS011;43311;51.196;7.518;2023-07-31T03:48:15;12.55;;;4.65;;
57467;SDS011;43311;51.196;7.518;2023-07-31T03:50:41;10.20;;;3.83;;
57467;SDS011;43311;51.196;7.518;2023-07-31T03:53:07;10.20;;;4.30;;
57467;SDS011;43311;51.196;7.518;2023-07-31T03:55:32;17.83;;;5.78;;
57467;SDS011;43311;51.196;7.518;2023-07-31T03:57:57;13.38;;;4.72;;
57467;SDS011;43311;51.196;7.518;2023-07-31T04:00:23;12.35;;;4.00;;
57467;SDS011;43311;51.196;7.518;2023-07-31T04:02:48;16.27;;;4.50;;
57467;SDS011;43311;51.196;7.518;2023-07-31T04:05:13;10.63;;;4.60;;
57467;SDS011;43311;51.196;7.518;2023-07-31T04:07:39;8.93;;;4.05;;
57467;SDS011;43311;51.196;7.518;2023-07-31T04:10:04;11.18;;;4.07;;
57467;SDS011;43311;51.196;7.518;2023-07-31T04:12:30;12.05;;;3.85;;
57467;SDS011;43311;51.196;7.518;2023-07-31T04:14:55;12.55;;;4.35;;
57467;SDS011;43311;51.196;7.518;2023-07-31T04:17:20;8.45;;;4.25;;
57467;SDS011;43311;51.196;7.518;2023-07-31T04:19:46;13.55;;;4.85;;
57467;SDS011;43311;51.196;7.518;2023-07-31T04:22:11;12.75;;;5.03;;
57467;SDS011;43311;51.196;7.518;2023-07-31T04:24:36;9.13;;;4.93;;
57467;SDS011;43311;51.196;7.518;2023-07-31T04:27:02;9.40;;;4.60;;
57467;SDS011;43311;51.196;7.518;2023-07-31T04:29:27;8.65;;;4.50;;
57467;SDS011;43311;51.196;7.518;2023-07-31T04:31:53;8.63;;;3.97;;
57467;SDS011;43311;51.196;7.518;2023-07-31T04:34:18;12.65;;;4.80;;
57467;SDS011;43311;51.196;7.518;2023-07-31T04:36:43;10.57;;;4.30;;
57467;SDS011;43311;51.196;7.518;2023-07-31T04:39:09;8.65;;;4.35;;
57467;SDS011;43311;51.196;7.518;2023-07-31T04:41:34;10.73;;;5.15;;
57467;SDS011;43311;51.196;7.518;2023-07-31T04:43:59;12.80;;;4.88;;
57467;SDS011;43311;51.196;7.518;2023-07-31T04:46:25;12.35;;;5.20;;
57467;SDS011;43311;51.196;7.518;2023-07-31T04:48:50;16.90;;;4.45;;
57467;SDS011;43311;51.196;7.518;2023-07-31T04:51:15;8.60;;;4.60;;
57467;SDS011;43311;51.196;7.518;2023-07-31T04:53:41;11.63;;;4.70;;
57467;SDS011;43311;51.196;7.518;2023-07-31T04:56:06;12.52;;;4.80;;
57467;SDS011;43311;51.196;7.518;2023-07-31T04:58:32;10.63;;;4.95;;
57467;SDS011;43311;51.196;7.518;2023-07-31T05:00:57;10.02;;;5.00;;
57467;SDS011;43311;51.196;7.518;2023-07-31T05:03:22;11.98;;;4.43;;
57467;SDS011;43311;51.196;7.518;2023-07-31T05:05:48;13.07;;;5.93;;
57467;SDS011;43311;51.196;7.518;2023-07-31T05:08:13;11.52;;;4.68;;
57467;SDS011;43311;51.196;7.518;2023-07-31T05:10:38;12.48;;;5.40;;
57467;SDS011;43311;51.196;7.518;2023-07-31T05:13:04;13.13;;;5.20;;
57467;SDS011;43311;51.196;7.518;2023-07-31T05:15:30;8.57;;;4.72;;
57467;SDS011;43311;51.196;7.518;2023-07-31T05:17:55;11.60;;;4.85;;
57467;SDS011;43311;51.196;7.518;2023-07-31T05:20:21;13.90;;;5.75;;
57467;SDS011;43311;51.196;7.518;2023-07-31T05:22:46;9.15;;;4.72;;
57467;SDS011;43311;51.196;7.518;2023-07-31T05:25:12;9.82;;;4.78;;
57467;SDS011;43311;51.196;7.518;2023-07-31T05:27:37;12.38;;;4.85;;
57467;SDS011;43311;51.196;7.518;2023-07-31T05:30:02;13.98;;;4.80;;
57467;SDS011;43311;51.196;7.518;2023-07-31T05:32:28;12.55;;;4.95;;
57467;SDS011;43311;51.196;7.518;2023-07-31T05:34:54;14.65;;;5.18;;
57467;SDS011;43311;51.196;7.518;2023-07-31T05:37:19;12.07;;;5.13;;
57467;SDS011;43311;51.196;7.518;2023-07-31T05:39:45;9.50;;;4.55;;
57467;SDS011;43311;51.196;7.518;2023-07-31T05:42:10;15.73;;;4.80;;
57467;SDS011;43311;51.196;7.518;2023-07-31T05:44:36;11.02;;;5.20;;
57467;SDS011;43311;51.196;7.518;2023-07-31T05:47:01;10.90;;;4.72;;
57467;SDS011;43311;51.196;7.518;2023-07-31T05:49:26;10.32;;;4.90;;
57467;SDS011;43311;51.196;7.518;2023-07-31T05:51:52;17.25;;;5.32;;
57467;SDS011;43311;51.196;7.518;2023-07-31T05:54:17;13.68;;;5.30;;
57467;SDS011;43311;51.196;7.518;2023-07-31T05:56:42;12.32;;;5.10;;
57467;SDS011;43311;51.196;7.518;2023-07-31T05:59:08;16.88;;;5.45;;
57467;SDS011;43311;51.196;7.518;2023-07-31T06:01:35;12.88;;;4.85;;
57467;SDS011;43311;51.196;7.518;2023-07-31T06:04:00;10.98;;;5.75;;
57467;SDS011;43311;51.196;7.518;2023-07-31T06:06:27;10.95;;;4.80;;
57467;SDS011;43311;51.196;7.518;2023-07-31T06:08:53;10.90;;;5.32;;
57467;SDS011;43311;51.196;7.518;2023-07-31T06:11:19;13.50;;;5.50;;
57467;SDS011;43311;51.196;7.518;2023-07-31T06:13:45;11.90;;;5.00;;
57467;SDS011;43311;51.196;7.518;2023-07-31T06:16:12;10.75;;;5.10;;
57467;SDS011;43311;51.196;7.518;2023-07-31T06:18:37;11.13;;;4.75;;
57467;SDS011;43311;51.196;7.518;2023-07-31T06:21:02;9.30;;;5.00;;
57467;SDS011;43311;51.196;7.518;2023-07-31T06:23:28;17.52;;;4.88;;
57467;SDS011;43311;51.196;7.518;2023-07-31T06:25:53;11.15;;;4.47;;
57467;SDS011;43311;51.196;7.518;2023-07-31T06:28:18;10.90;;;4.32;;
57467;SDS011;43311;51.196;7.518;2023-07-31T06:30:44;16.65;;;6.68;;
57467;SDS011;43311;51.196;7.518;2023-07-31T06:33:09;13.57;;;5.53;;
57467;SDS011;43311;51.196;7.518;2023-07-31T06:35:35;13.40;;;4.85;;
57467;SDS011;43311;51.196;7.518;2023-07-31T06:38:01;12.60;;;4.55;;
57467;SDS011;43311;51.196;7.518;2023-07-31T06:40:28;10.07;;;4.30;;
57467;SDS011;43311;51.196;7.518;2023-07-31T06:42:54;11.65;;;4.50;;
57467;SDS011;43311;51.196;7.518;2023-07-31T06:45:21;11.30;;;4.80;;
57467;SDS011;43311;51.196;7.518;2023-07-31T06:47:47;11.95;;;4.47;;
57467;SDS011;43311;51.196;7.518;2023-07-31T06:50:18;13.32;;;3.90;;
57467;SDS011;43311;51.196;7.518;2023-07-31T06:52:44;8.23;;;4.15;;
57467;SDS011;43311;51.196;7.518;2023-07-31T06:55:16;7.88;;;4.03;;
57467;SDS011;43311;51.196;7.518;2023-07-31T06:57:46;8.70;;;5.10;;
57467;SDS011;43311;51.196;7.518;2023-07-31T07:00:13;8.57;;;4.53;;
57467;SDS011;43311;51.196;7.518;2023-07-31T07:02:39;8.77;;;4.22;;
57467;SDS011;43311;51.196;7.518;2023-07-31T07:05:04;12.43;;;4.60;;
57467;SDS011;43311;51.196;7.518;2023-07-31T07:07:32;11.50;;;4.13;;
57467;SDS011;43311;51.196;7.518;2023-07-31T07:09:57;9.07;;;4.68;;
57467;SDS011;43311;51.196;7.518;2023-07-31T07:12:24;8.25;;;3.97;;
57467;SDS011;43311;51.196;7.518;2023-07-31T07:14:50;9.15;;;4.30;;
57467;SDS011;43311;51.196;7.518;2023-07-31T07:17:18;11.15;;;4.82;;
57467;SDS011;43311;51.196;7.518;2023-07-31T07:19:44;12.27;;;4.35;;
57467;SDS011;43311;51.196;7.518;2023-07-31T07:22:11;8.27;;;4.50;;
57467;SDS011;43311;51.196;7.518;2023-07-31T07:24:37;9.85;;;4.28;;
57467;SDS011;43311;51.196;7.518;2023-07-31T07:27:03;8.35;;;4.47;;
57467;SDS011;43311;51.196;7.518;2023-07-31T07:29:29;11.82;;;4.60;;
57467;SDS011;43311;51.196;7.518;2023-07-31T07:31:54;10.32;;;4.05;;
57467;SDS011;43311;51.196;7.518;2023-07-31T07:34:22;8.95;;;4.15;;
57467;SDS011;43311;51.196;7.518;2023-07-31T07:36:48;10.32;;;3.80;;
57467;SDS011;43311;51.196;7.518;2023-07-31T07:39:14;8.57;;;4.50;;
57467;SDS011;43311;51.196;7.518;2023-07-31T07:41:39;11.73;;;4.60;;
57467;SDS011;43311;51.196;7.518;2023-07-31T07:44:04;11.93;;;4.40;;
57467;SDS011;43311;51.196;7.518;2023-07-31T07:46:30;9.63;;;4.50;;
57467;SDS011;43311;51.196;7.518;2023-07-31T07:48:55;12.13;;;5.03;;
57467;SDS011;43311;51.196;7.518;2023-07-31T07:51:20;9.77;;;4.85;;
57467;SDS011;43311;51.196;7.518;2023-07-31T07:53:46;10.30;;;4.43;;
57467;SDS011;43311;51.196;7.518;2023-07-31T07:56:11;8.27;;;4.75;;
57467;SDS011;43311;51.196;7.518;2023-07-31T07:58:36;10.77;;;5.30;;
57467;SDS011;43311;51.196;7.518;2023-07-31T08:01:02;9.82;;;5.30;;
57467;SDS011;43311;51.196;7.518;2023-07-31T08:03:27;12.73;;;5.70;;
57467;SDS011;43311;51.196;7.518;2023-07-31T08:05:52;14.45;;;5.78;;
57467;SDS011;43311;51.196;7.518;2023-07-31T08:08:23;11.15;;;5.78;;
57467;SDS011;43311;51.196;7.518;2023-07-31T08:10:48;13.23;;;5.80;;
57467;SDS011;43311;51.196;7.518;2023-07-31T08:13:13;13.05;;;5.50;;
57467;SDS011;43311;51.196;7.518;2023-07-31T08:15:41;19.42;;;6.00;;
57467;SDS011;43311;51.196;7.518;2023-07-31T08:18:07;13.40;;;6.50;;
57467;SDS011;43311;51.196;7.518;2023-07-31T08:20:32;13.95;;;6.55;;
57467;SDS011;43311;51.196;7.518;2023-07-31T08:22:58;16.42;;;6.07;;
57467;SDS011;43311;51.196;7.518;2023-07-31T08:25:24;13.75;;;5.38;;
57467;SDS011;43311;51.196;7.518;2023-07-31T08:27:50;9.13;;;5.13;;
57467;SDS011;43311;51.196;7.518;2023-07-31T08:30:18;11.93;;;5.07;;
57467;SDS011;43311;51.196;7.518;2023-07-31T08:32:46;11.45;;;4.65;;
57467;SDS011;43311;51.196;7.518;2023-07-31T08:35:12;10.13;;;4.25;;
57467;SDS011;43311;51.196;7.518;2023-07-31T08:37:38;9.00;;;4.07;;
57467;SDS011;43311;51.196;7.518;2023-07-31T08:40:04;10.52;;;4.10;;
57467;SDS011;43311;51.196;7.518;2023-07-31T08:42:31;9.13;;;3.95;;
57467;SDS011;43311;51.196;7.518;2023-07-31T08:44:57;9.10;;;3.78;;
57467;SDS011;43311;51.196;7.518;2023-07-31T08:47:25;9.13;;;4.23;;
57467;SDS011;43311;51.196;7.518;2023-07-31T08:49:51;6.60;;;3.05;;
57467;SDS011;43311;51.196;7.518;2023-07-31T08:52:18;7.05;;;4.30;;
57467;SDS011;43311;51.196;7.518;2023-07-31T08:54:44;7.32;;;3.50;;
57467;SDS011;43311;51.196;7.518;2023-07-31T08:57:09;4.45;;;3.17;;
57467;SDS011;43311;51.196;7.518;2023-07-31T08:59:35;6.82;;;3.08;;
57467;SDS011;43311;51.196;7.518;2023-07-31T09:02:04;6.55;;;2.35;;
57467;SDS011;43311;51.196;7.518;2023-07-31T09:04:32;5.57;;;2.95;;
57467;SDS011;43311;51.196;7.518;2023-07-31T09:07:00;4.00;;;2.33;;
57467;SDS011;43311;51.196;7.518;2023-07-31T09:09:28;3.95;;;2.20;;
57467;SDS011;43311;51.196;7.518;2023-07-31T09:11:54;3.83;;;2.30;;
57467;SDS011;43311;51.196;7.518;2023-07-31T09:14:20;5.90;;;2.55;;
57467;SDS011;43311;51.196;7.518;2023-07-31T09:16:56;5.47;;;2.67;;
57467;SDS011;43311;51.196;7.518;2023-07-31T09:19:31;4.05;;;2.40;;
57467;SDS011;43311;51.196;7.518;2023-07-31T09:21:59;4.28;;;2.53;;
57467;SDS011;43311;51.196;7.518;2023-07-31T09:24:28;6.70;;;3.15;;
57467;SDS011;43311;51.196;7.518;2023-07-31T09:26:55;7.78;;;2.88;;
57467;SDS011;43311;51.196;7.518;2023-07-31T09:29:22;7.93;;;3.30;;
57467;SDS011;43311;51.196;7.518;2023-07-31T09:31:48;4.68;;;3.00;;
57467;SDS011;43311;51.196;7.518;2023-07-31T09:34:13;7.82;;;2.83;;
57467;SDS011;43311;51.196;7.518;2023-07-31T09:36:39;5.35;;;3.35;;
57467;SDS011;43311;51.196;7.518;2023-07-31T09:39:16;5.78;;;3.55;;
57467;SDS011;43311;51.196;7.518;2023-07-31T09:41:43;6.65;;;3.28;;
57467;SDS011;43311;51.196;7.518;2023-07-31T09:44:09;7.18;;;3.53;;
57467;SDS011;43311;51.196;7.518;2023-07-31T09:46:35;8.25;;;3.65;;
57467;SDS011;43311;51.196;7.518;2023-07-31T09:49:09;6.15;;;3.58;;
57467;SDS011;43311;51.196;7.518;2023-07-31T09:51:38;3.63;;;2.75;;
57467;SDS011;43311;51.196;7.518;2023-07-31T09:54:12;3.88;;;2.67;;
57467;SDS011;43311;51.196;7.518;2023-07-31T09:56:41;4.80;;;2.20;;
57467;SDS011;43311;51.196;7.518;2023-07-31T09:59:08;4.90;;;2.55;;
57467;SDS011;43311;51.196;7.518;2023-07-31T10:04:01;3.40;;;2.50;;
57467;SDS011;43311;51.196;7.518;2023-07-31T10:06:29;4.00;;;2.83;;
57467;SDS011;43311;51.196;7.518;2023-07-31T10:08:55;4.70;;;2.97;;
57467;SDS011;43311;51.196;7.518;2023-07-31T10:11:22;5.32;;;3.08;;
57467;SDS011;43311;51.196;7.518;2023-07-31T10:16:17;6.30;;;2.95;;
57467;SDS011;43311;51.196;7.518;2023-07-31T10:18:43;5.15;;;3.20;;
57467;SDS011;43311;51.196;7.518;2023-07-31T10:21:10;5.25;;;2.83;;
57467;SDS011;43311;51.196;7.518;2023-07-31T10:23:36;3.88;;;3.08;;
57467;SDS011;43311;51.196;7.518;2023-07-31T10:26:02;4.45;;;3.42;;
57467;SDS011;43311;51.196;7.518;2023-07-31T10:28:27;6.05;;;3.28;;
57467;SDS011;43311;51.196;7.518;2023-07-31T10:30:54;5.80;;;3.50;;
57467;SDS011;43311;51.196;7.518;2023-07-31T10:33:20;6.65;;;3.75;;
57467;SDS011;43311;51.196;7.518;2023-07-31T10:35:47;6.07;;;3.95;;
57467;SDS011;43311;51.196;7.518;2023-07-31T10:38:13;5.93;;;3.60;;
57467;SDS011;43311;51.196;7.518;2023-07-31T10:40:39;5.22;;;3.63;;
57467;SDS011;43311;51.196;7.518;2023-07-31T10:43:05;4.93;;;3.47;;
57467;SDS011;43311;51.196;7.518;2023-07-31T10:48:03;5.40;;;2.97;;
57467;SDS011;43311;51.196;7.518;2023-07-31T10:50:36;4.88;;;2.95;;
57467;SDS011;43311;51.196;7.518;2023-07-31T10:53:03;6.03;;;3.00;;
57467;SDS011;43311;51.196;7.518;2023-07-31T10:55:41;4.43;;;3.20;;
57467;SDS011;43311;51.196;7.518;2023-07-31T10:58:12;4.85;;;2.60;;
57467;SDS011;43311;51.196;7.518;2023-07-31T11:00:44;4.85;;;2.92;;
57467;SDS011;43311;51.196;7.518;2023-07-31T11:03:11;7.10;;;2.88;;
57467;SDS011;43311;51.196;7.518;2023-07-31T11:10:44;5.43;;;3.17;;
57467;SDS011;43311;51.196;7.518;2023-07-31T11:13:11;10.52;;;3.45;;
57467;SDS011;43311;51.196;7.518;2023-07-31T11:15:36;5.43;;;3.10;;
57467;SDS011;43311;51.196;7.518;2023-07-31T11:18:02;5.80;;;3.10;;
57467;SDS011;43311;51.196;7.518;2023-07-31T11:20:31;6.00;;;3.17;;
57467;SDS011;43311;51.196;7.518;2023-07-31T11:23:01;6.72;;;3.15;;
57467;SDS011;43311;51.196;7.518;2023-07-31T11:25:30;5.60;;;2.80;;
57467;SDS011;43311;51.196;7.518;2023-07-31T11:27:57;8.05;;;3.00;;
57467;SDS011;43311;51.196;7.518;2023-07-31T11:30:27;6.55;;;2.72;;
57467;SDS011;43311;51.196;7.518;2023-07-31T11:32:53;7.70;;;3.47;;
57467;SDS011;43311;51.196;7.518;2023-07-31T11:35:20;8.05;;;3.35;;
57467;SDS011;43311;51.196;7.518;2023-07-31T11:37:45;6.22;;;3.45;;
57467;SDS011;43311;51.196;7.518;2023-07-31T11:40:11;6.70;;;3.70;;
57467;SDS011;43311;51.196;7.518;2023-07-31T11:42:36;5.43;;;3.05;;
57467;SDS011;43311;51.196;7.518;2023-07-31T11:45:02;6.75;;;3.30;;
57467;SDS011;43311;51.196;7.518;2023-07-31T11:47:29;4.63;;;3.10;;
57467;SDS011;43311;51.196;7.518;2023-07-31T11:49:55;5.63;;;3.55;;
57467;SDS011;43311;51.196;7.518;2023-07-31T11:52:21;4.88;;;3.03;;
57467;SDS011;43311;51.196;7.518;2023-07-31T11:54:48;3.95;;;3.30;;
57467;SDS011;43311;51.196;7.518;2023-07-31T11:57:14;5.88;;;3.55;;
57467;SDS011;43311;51.196;7.518;2023-07-31T11:59:40;5.03;;;3.10;;
57467;SDS011;43311;51.196;7.518;2023-07-31T12:02:07;4.82;;;2.60;;
57467;SDS011;43311;51.196;7.518;2023-07-31T12:04:32;4.72;;;3.33;;
57467;SDS011;43311;51.196;7.518;2023-07-31T12:06:59;4.10;;;3.10;;
57467;SDS011;43311;51.196;7.518;2023-07-31T12:09:25;5.65;;;3.33;;
57467;SDS011;43311;51.196;7.518;2023-07-31T12:11:51;11.55;;;3.47;;
57467;SDS011;43311;51.196;7.518;2023-07-31T12:14:35;5.60;;;3.30;;
57467;SDS011;43311;51.196;7.518;2023-07-31T12:17:01;5.72;;;3.67;;
57467;SDS011;43311;51.196;7.518;2023-07-31T12:19:29;5.28;;;3.85;;
57467;SDS011;43311;51.196;7.518;2023-07-31T12:21:55;7.30;;;4.07;;
57467;SDS011;43311;51.196;7.518;2023-07-31T12:24:21;8.82;;;3.40;;
57467;SDS011;43311;51.196;7.518;2023-07-31T12:26:47;7.72;;;4.07;;
57467;SDS011;43311;51.196;7.518;2023-07-31T12:29:13;6.15;;;4.35;;
57467;SDS011;43311;51.196;7.518;2023-07-31T12:31:40;8.98;;;4.07;;
57467;SDS011;43311;51.196;7.518;2023-07-31T12:34:15;7.95;;;4.53;;
57467;SDS011;43311;51.196;7.518;2023-07-31T12:36:45;8.88;;;4.20;;
57467;SDS011;43311;51.196;7.518;2023-07-31T12:39:12;5.03;;;3.05;;
57467;SDS011;43311;51.196;7.518;2023-07-31T12:41:37;7.72;;;3.42;;
57467;SDS011;43311;51.196;7.518;2023-07-31T12:44:03;6.30;;;3.60;;
57467;SDS011;43311;51.196;7.518;2023-07-31T12:46:29;5.25;;;3.63;;
57467;SDS011;43311;51.196;7.518;2023-07-31T12:48:54;8.82;;;3.80;;
57467;SDS011;43311;51.196;7.518;2023-07-31T12:51:19;6.32;;;3.42;;
57467;SDS011;43311;51.196;7.518;2023-07-31T12:53:46;6.50;;;3.80;;
57467;SDS011;43311;51.196;7.518;2023-07-31T12:56:11;7.32;;;3.80;;
57467;SDS011;43311;51.196;7.518;2023-07-31T12:58:36;8.35;;;3.65;;
57467;SDS011;43311;51.196;7.518;2023-07-31T13:01:02;7.15;;;4.00;;
57467;SDS011;43311;51.196;7.518;2023-07-31T13:03:27;6.03;;;3.45;;
57467;SDS011;43311;51.196;7.518;2023-07-31T13:05:52;12.80;;;4.78;;
57467;SDS011;43311;51.196;7.518;2023-07-31T13:08:18;7.43;;;3.85;;
57467;SDS011;43311;51.196;7.518;2023-07-31T13:10:43;4.60;;;3.30;;
57467;SDS011;43311;51.196;7.518;2023-07-31T13:13:09;7.35;;;3.17;;
57467;SDS011;43311;51.196;7.518;2023-07-31T13:15:35;3.85;;;2.60;;
57467;SDS011;43311;51.196;7.518;2023-07-31T13:18:00;6.00;;;2.85;;
57467;SDS011;43311;51.196;7.518;2023-07-31T13:20:26;5.03;;;2.58;;
57467;SDS011;43311;51.196;7.518;2023-07-31T13:22:51;4.60;;;2.50;;
57467;SDS011;43311;51.196;7.518;2023-07-31T13:25:16;5.03;;;2.05;;
57467;SDS011;43311;51.196;7.518;2023-07-31T13:27:42;3.08;;;1.75;;
57467;SDS011;43311;51.196;7.518;2023-07-31T13:30:07;3.38;;;2.08;;
57467;SDS011;43311;51.196;7.518;2023-07-31T13:32:33;4.25;;;2.00;;
57467;SDS011;43311;51.196;7.518;2023-07-31T13:34:58;2.95;;;2.03;;
57467;SDS011;43311;51.196;7.518;2023-07-31T13:37:24;4.18;;;2.33;;
57467;SDS011;43311;51.196;7.518;2023-07-31T13:39:49;4.70;;;2.03;;
57467;SDS011;43311;51.196;7.518;2023-07-31T13:42:14;3.67;;;2.38;;
57467;SDS011;43311;51.196;7.518;2023-07-31T13:44:40;5.80;;;2.90;;
57467;SDS011;43311;51.196;7.518;2023-07-31T13:47:06;5.35;;;2.50;;
57467;SDS011;43311;51.196;7.518;2023-07-31T13:49:32;4.97;;;2.53;;
57467;SDS011;43311;51.196;7.518;2023-07-31T13:51:58;3.42;;;2.15;;
57467;SDS011;43311;51.196;7.518;2023-07-31T13:54:25;3.67;;;2.38;;
57467;SDS011;43311;51.196;7.518;2023-07-31T13:56:53;3.80;;;2.53;;
57467;SDS011;43311;51.196;7.518;2023-07-31T13:59:19;4.40;;;2.55;;
57467;SDS011;43311;51.196;7.518;2023-07-31T14:01:45;2.83;;;2.53;;
57467;SDS011;43311;51.196;7.518;2023-07-31T14:04:11;6.90;;;3.13;;
57467;SDS011;43311;51.196;7.518;2023-07-31T14:06:36;4.22;;;2.80;;
57467;SDS011;43311;51.196;7.518;2023-07-31T14:09:02;4.57;;;2.90;;
57467;SDS011;43311;51.196;7.518;2023-07-31T14:11:28;5.35;;;3.05;;
57467;SDS011;43311;51.196;7.518;2023-07-31T14:13:54;4.80;;;3.00;;
57467;SDS011;43311;51.196;7.518;2023-07-31T14:16:21;6.80;;;2.85;;
57467;SDS011;43311;51.196;7.518;2023-07-31T14:18:47;5.95;;;3.42;;
57467;SDS011;43311;51.196;7.518;2023-07-31T14:21:12;6.80;;;2.95;;
57467;SDS011;43311;51.196;7.518;2023-07-31T14:23:39;4.88;;;3.28;;
57467;SDS011;43311;51.196;7.518;2023-07-31T14:26:05;6.05;;;3.13;;
57467;SDS011;43311;51.196;7.518;2023-07-31T14:28:30;6.20;;;2.80;;
57467;SDS011;43311;51.196;7.518;2023-07-31T14:30:56;6.47;;;2.72;;
57467;SDS011;43311;51.196;7.518;2023-07-31T14:33:21;6.13;;;3.10;;
57467;SDS011;43311;51.196;7.518;2023-07-31T14:35:47;4.13;;;3.13;;
57467;SDS011;43311;51.196;7.518;2023-07-31T14:38:12;4.60;;;2.85;;
57467;SDS011;43311;51.196;7.518;2023-07-31T14:40:38;6.75;;;3.63;;
57467;SDS011;43311;51.196;7.518;2023-07-31T14:43:06;4.35;;;3.15;;
57467;SDS011;43311;51.196;7.518;2023-07-31T14:45:33;6.95;;;2.80;;
57467;SDS011;43311;51.196;7.518;2023-07-31T14:47:59;6.35;;;3.05;;
57467;SDS011;43311;51.196;7.518;2023-07-31T14:50:26;6.43;;;3.20;;
57467;SDS011;43311;51.196;7.518;2023-07-31T14:52:52;4.80;;;3.05;;
57467;SDS011;43311;51.196;7.518;2023-07-31T14:55:19;7.18;;;3.10;;